Lynchburg, Illinois
Current Conditions -  °F | °C
As of 6:35 AM on Monday 22 Dec 2014 (Local Time) from KIJX Reporting Station
Overcast Overcast  
Wind Chill: 30°   Ceiling: 4000
Heat Index: 38°   Visibility: 7mi
Dew Point: 34°   Wind: 15mph
Humidity: 84%   Direction: 110°ESE
Pressure: 29.8"   Gusts: NA
Location:  40.1345°N, 90.1653°W
Report Text: KIJX 221235Z AUTO 11013KT 7SM BKN040 OVC046 04/01 A2980 RMK AO2 T00350011
Loading
Personal Weather Stations






























Interactive Weather Map New forecast layout! Learn more

10-Day Weather Forecast

Advertisements
Track Severe Weather on mobile